createdAt,value
2022-08-01T00:00:19.404Z,99391.61
2022-08-01T00:01:22.224Z,99387.03
2022-08-01T00:02:25.080Z,99385.16
2022-08-01T00:03:27.254Z,99394.14
2022-08-01T00:04:29.531Z,99386.86
2022-08-01T00:05:32.783Z,99393.44
2022-08-01T00:06:36.013Z,99395.64
2022-08-01T00:07:38.371Z,99387.69
2022-08-01T00:08:41.282Z,99390.39
2022-08-01T00:09:43.834Z,99383.95
2022-08-01T00:10:46.958Z,99382.12
2022-08-01T00:11:49.174Z,99393.61
2022-08-01T00:12:54.303Z,99387.36
2022-08-01T00:13:56.685Z,99380.95
2022-08-01T00:15:00.256Z,99378.24
2022-08-01T00:16:04.768Z,99381.95
2022-08-01T00:17:07.681Z,99382.95
2022-08-01T00:18:10.306Z,99384.83
2022-08-01T00:19:12.668Z,99379.41
2022-08-01T00:20:15.954Z,99383.78
2022-08-01T00:21:18.502Z,99375.84
2022-08-01T00:22:21.082Z,99382.12
2022-08-01T00:23:23.562Z,99372.80
2022-08-01T00:24:25.793Z,99372.80
2022-08-01T00:25:33.841Z,99385.98
2022-08-01T00:26:33.097Z,99378.20
2022-08-01T00:27:37.596Z,99379.20
2022-08-01T00:28:40.790Z,99382.75
2022-08-01T00:30:10.002Z,99383.45
2022-08-01T00:30:47.869Z,99376.33
2022-08-01T00:31:51.504Z,99381.74
2022-08-01T00:32:53.926Z,99384.61
2022-08-01T00:33:56.488Z,99382.75
2022-08-01T00:34:58.753Z,99368.39
2022-08-01T00:36:01.699Z,99376.50
2022-08-01T00:37:03.861Z,99372.92
2022-08-01T00:38:07.275Z,99371.09
2022-08-01T00:39:09.838Z,99372.92
2022-08-01T00:40:12.815Z,99372.92
2022-08-01T00:41:15.566Z,99365.68
2022-08-01T00:42:18.718Z,99371.09
2022-08-01T00:43:21.123Z,99365.68
2022-08-01T00:44:24.513Z,99363.98
2022-08-01T00:45:26.839Z,99364.98
2022-08-01T00:46:30.511Z,99366.84
2022-08-01T00:47:33.128Z,99364.14
2022-08-01T00:48:35.481Z,99364.14
2022-08-01T00:49:37.983Z,99366.02
2022-08-01T00:50:40.630Z,99365.14
2022-08-01T00:51:44.939Z,99366.02
2022-08-01T00:52:51.659Z,99353.98
2022-08-01T00:53:52.423Z,99353.98
2022-08-01T00:54:55.300Z,99362.44
2022-08-01T00:55:57.566Z,99354.33
2022-08-01T00:56:59.941Z,99359.73
2022-08-01T00:58:05.691Z,99360.77
2022-08-01T00:59:06.621Z,99359.90
2022-08-01T01:00:11.841Z,99363.61
2022-08-01T01:01:15.855Z,99359.90
2022-08-01T01:02:19.929Z,99353.66
2022-08-01T01:03:37.904Z,99353.66
2022-08-01T01:04:28.437Z,99352.95
2022-08-01T01:05:37.293Z,99360.39
2022-08-01T01:06:50.880Z,99362.23
2022-08-01T01:08:04.973Z,99351.58
2022-08-01T01:09:40.350Z,99360.86
2022-08-01T01:11:00.521Z,99365.59
2022-08-01T01:12:24.705Z,99370.00
2022-08-01T01:13:50.020Z,99367.46
2022-08-01T01:16:05.029Z,99355.16
2022-08-01T01:17:07.755Z,99359.97
2022-08-01T01:18:16.963Z,99369.08
2022-08-01T01:19:21.784Z,99363.84
2022-08-01T01:21:57.636Z,99370.67
2022-08-01T01:23:23.761Z,99369.95
2022-08-01T01:24:52.126Z,99367.25
2022-08-01T01:26:17.444Z,99372.66
2022-08-01T01:27:26.875Z,99364.70
2022-08-01T01:28:58.175Z,99376.52
2022-08-01T01:30:01.276Z,99370.28
2022-08-01T01:31:04.154Z,99368.58
2022-08-01T01:32:09.154Z,99364.33
2022-08-01T01:33:13.586Z,99374.44
2022-08-01T01:34:17.783Z,99371.73
2022-08-01T01:36:41.172Z,99369.79
2022-08-01T01:37:44.179Z,99374.57
2022-08-01T01:38:49.561Z,99380.84
2022-08-01T01:39:54.304Z,99373.73
2022-08-01T01:40:56.936Z,99371.03
2022-08-01T01:41:59.170Z,99371.73
2022-08-01T01:43:01.352Z,99375.27
2022-08-01T01:44:05.511Z,99371.60
2022-08-01T01:45:08.398Z,99381.39
2022-08-01T01:46:11.830Z,99373.14
2022-08-01T01:47:14.237Z,99371.28
2022-08-01T01:49:30.249Z,99378.11
2022-08-01T01:50:33.865Z,99375.52
2022-08-01T01:51:37.055Z,99376.36
2022-08-01T01:52:39.925Z,99375.36
2022-08-01T01:53:43.550Z,99379.06
2022-08-01T01:55:59.534Z,99373.38
2022-08-01T01:57:02.889Z,99377.20
2022-08-01T01:58:05.868Z,99374.48
2022-08-01T01:59:09.055Z,99377.20
2022-08-01T02:00:13.148Z,99376.20
2022-08-01T02:01:15.538Z,99377.90
2022-08-01T02:02:19.994Z,99376.90
2022-08-01T02:03:22.803Z,99379.60
2022-08-01T02:04:25.871Z,99375.87
2022-08-01T02:05:28.099Z,99378.57
2022-08-01T02:06:31.251Z,99372.16
2022-08-01T02:07:33.572Z,99375.87
2022-08-01T02:08:35.820Z,99379.44
2022-08-01T02:09:38.916Z,99380.27
2022-08-01T02:10:41.263Z,99372.16
2022-08-01T02:11:59.159Z,99382.98
2022-08-01T02:12:51.566Z,99377.90
2022-08-01T02:15:14.924Z,99376.95
2022-08-01T02:16:18.292Z,99384.31
2022-08-01T02:17:22.019Z,99373.66
2022-08-01T02:18:25.209Z,99374.66
2022-08-01T02:19:27.587Z,99375.84
2022-08-01T02:20:31.429Z,99368.58
2022-08-01T02:22:58.789Z,99379.60
2022-08-01T02:25:22.317Z,99373.16
2022-08-01T02:29:31.691Z,99362.84
2022-08-01T02:30:36.493Z,99376.44
2022-08-01T02:31:39.974Z,99367.66
2022-08-01T02:32:44.911Z,99364.08
2022-08-01T02:34:02.881Z,99366.78
2022-08-01T02:35:06.146Z,99372.19
2022-08-01T02:36:30.351Z,99360.54
2022-08-01T02:37:13.199Z,99359.67
2022-08-01T02:38:15.550Z,99356.13
2022-08-01T02:39:18.539Z,99364.08
2022-08-01T02:40:21.886Z,99352.44
2022-08-01T02:41:25.950Z,99361.37
2022-08-01T02:42:28.513Z,99360.54
2022-08-01T02:43:31.099Z,99358.67
2022-08-01T02:44:37.812Z,99359.55
2022-08-01T02:45:43.278Z,99362.09
2022-08-01T02:46:58.242Z,99362.92
2022-08-01T02:48:04.372Z,99359.22
2022-08-01T02:49:08.348Z,99362.76
2022-08-01T02:50:11.757Z,99366.33
2022-08-01T02:51:14.272Z,99363.63
2022-08-01T02:52:17.804Z,99367.16
2022-08-01T02:53:21.129Z,99358.22
2022-08-01T02:54:23.861Z,99360.92
2022-08-01T02:55:26.007Z,99361.76
2022-08-01T02:56:28.879Z,99361.76
2022-08-01T02:57:45.426Z,99371.60
2022-08-01T02:58:36.246Z,99371.60
2022-08-01T02:59:38.558Z,99366.20
2022-08-01T03:00:43.765Z,99370.73
2022-08-01T03:01:46.240Z,99376.27
2022-08-01T03:02:48.898Z,99363.08
2022-08-01T03:03:51.389Z,99364.78
2022-08-01T03:04:56.951Z,99372.90
2022-08-01T03:05:58.133Z,99370.19
2022-08-01T03:07:01.214Z,99368.48
2022-08-01T03:08:03.943Z,99360.87
2022-08-01T03:09:06.970Z,99371.03
2022-08-01T03:10:10.448Z,99361.92
2022-08-01T03:11:12.817Z,99365.46
2022-08-01T03:12:17.666Z,99366.46
2022-08-01T03:13:21.021Z,99370.03
2022-08-01T03:14:25.636Z,99369.16
2022-08-01T03:15:28.308Z,99366.46
2022-08-01T03:16:31.802Z,99369.16
2022-08-01T03:17:34.260Z,99371.73
2022-08-01T03:18:37.336Z,99371.73
2022-08-01T03:19:42.154Z,99370.87
2022-08-01T03:20:44.895Z,99372.57
2022-08-01T03:21:48.518Z,99373.44
2022-08-01T03:22:51.219Z,99377.98
2022-08-01T03:23:55.303Z,99378.84
2022-08-01T03:24:58.069Z,99377.02
2022-08-01T03:26:00.227Z,99380.55
2022-08-01T03:27:04.256Z,99375.27
2022-08-01T03:28:08.253Z,99378.30
2022-08-01T03:29:15.182Z,99379.47
2022-08-01T03:30:20.117Z,99376.92
2022-08-01T03:31:22.682Z,99381.30
2022-08-01T03:32:25.664Z,99377.59
2022-08-01T03:33:28.199Z,99377.59
2022-08-01T03:34:30.470Z,99377.44
2022-08-01T03:36:52.303Z,99379.89
2022-08-01T03:38:15.155Z,99377.76
2022-08-01T03:39:01.233Z,99376.05
2022-08-01T03:40:09.941Z,99376.22
2022-08-01T03:41:13.969Z,99375.38
2022-08-01T03:42:18.850Z,99369.14
2022-08-01T03:43:23.884Z,99370.81
2022-08-01T03:44:29.422Z,99381.63
2022-08-01T03:45:40.596Z,99379.79
2022-08-01T03:46:47.760Z,99374.38
2022-08-01T03:47:53.706Z,99373.52
2022-08-01T03:48:56.108Z,99378.09
2022-08-01T03:49:59.031Z,99374.55
2022-08-01T03:51:01.571Z,99372.84
2022-08-01T03:52:04.918Z,99368.27
2022-08-01T03:53:07.644Z,99373.84
2022-08-01T03:54:10.143Z,99371.46
2022-08-01T03:55:12.801Z,99372.62
2022-08-01T03:56:18.281Z,99378.03
2022-08-01T03:57:35.858Z,99376.48
2022-08-01T03:58:26.238Z,99368.53
2022-08-01T03:59:30.039Z,99376.64
2022-08-01T04:00:33.116Z,99370.91
2022-08-01T04:01:36.198Z,99370.91
2022-08-01T04:02:38.591Z,99371.91
2022-08-01T04:03:41.732Z,99372.78
2022-08-01T04:04:45.577Z,99375.33
2022-08-01T04:05:47.794Z,99367.22
2022-08-01T04:06:50.458Z,99369.21
2022-08-01T04:07:53.333Z,99369.21
2022-08-01T04:08:55.676Z,99367.38
2022-08-01T04:09:58.035Z,99368.21
2022-08-01T04:11:00.826Z,99369.92
2022-08-01T04:12:12.201Z,99368.05
2022-08-01T04:13:07.914Z,99372.45
2022-08-01T04:14:10.479Z,99368.92
2022-08-01T04:15:12.747Z,99368.92
2022-08-01T04:16:16.740Z,99367.89
2022-08-01T04:17:19.305Z,99369.08
2022-08-01T04:18:21.567Z,99372.78
2022-08-01T04:19:24.120Z,99369.37
2022-08-01T04:20:27.110Z,99374.94
2022-08-01T04:21:31.517Z,99367.70
2022-08-01T04:22:37.328Z,99367.54
2022-08-01T04:23:39.114Z,99365.00
2022-08-01T04:24:41.882Z,99362.45
2022-08-01T04:25:44.513Z,99369.70
2022-08-01T04:26:47.015Z,99371.56
2022-08-01T04:27:51.992Z,99361.59
2022-08-01T04:28:54.508Z,99362.45
2022-08-01T04:29:58.338Z,99362.13
2022-08-01T04:31:02.265Z,99355.70
2022-08-01T04:32:05.851Z,99359.11
2022-08-01T04:33:08.559Z,99355.41
2022-08-01T04:34:11.026Z,99360.81
2022-08-01T04:35:34.857Z,99362.80
2022-08-01T04:36:21.405Z,99358.27
2022-08-01T04:37:25.175Z,99359.95
2022-08-01T04:38:28.317Z,99358.40
2022-08-01T04:39:32.012Z,99356.73
2022-08-01T04:40:35.539Z,99356.73
2022-08-01T04:41:38.097Z,99361.97
2022-08-01T04:42:40.568Z,99362.64
2022-08-01T04:43:44.402Z,99360.81
2022-08-01T04:44:47.073Z,99353.54
2022-08-01T04:45:49.398Z,99360.65
2022-08-01T04:46:52.917Z,99360.65
2022-08-01T04:47:55.371Z,99356.08
2022-08-01T04:48:57.786Z,99353.22
2022-08-01T04:50:01.242Z,99358.11
2022-08-01T04:51:05.291Z,99355.41
2022-08-01T04:52:08.110Z,99358.11
2022-08-01T04:53:15.799Z,99355.41
2022-08-01T04:54:18.678Z,99364.35
2022-08-01T04:55:21.206Z,99356.24
2022-08-01T04:56:24.916Z,99362.48
2022-08-01T04:57:27.773Z,99361.48
2022-08-01T04:58:29.987Z,99357.95
2022-08-01T05:00:47.502Z,99355.97
2022-08-01T05:01:50.656Z,99356.95
2022-08-01T05:02:54.118Z,99362.36
2022-08-01T05:03:56.588Z,99359.48
2022-08-01T05:04:59.221Z,99359.48
2022-08-01T05:06:01.383Z,99361.03
2022-08-01T05:07:04.248Z,99354.75
2022-08-01T05:08:06.960Z,99358.33
2022-08-01T05:09:10.759Z,99361.87
2022-08-01T05:10:13.951Z,99363.57
2022-08-01T05:11:17.329Z,99362.54
2022-08-01T05:12:21.848Z,99366.11
2022-08-01T05:13:24.728Z,99362.54
2022-08-01T05:14:27.320Z,99360.70
2022-08-01T05:15:29.803Z,99363.57
2022-08-01T05:16:33.325Z,99361.70
2022-08-01T05:17:35.583Z,99359.00
2022-08-01T05:18:38.051Z,99357.13
2022-08-01T05:19:41.125Z,99349.19
2022-08-01T05:20:43.398Z,99353.59
2022-08-01T05:21:45.680Z,99357.13
2022-08-01T05:22:48.166Z,99347.19
2022-08-01T05:23:50.508Z,99351.73
2022-08-01T05:24:52.842Z,99356.13
2022-08-01T05:25:58.990Z,99354.27
2022-08-01T05:27:02.304Z,99356.84
2022-08-01T05:28:06.246Z,99352.27
2022-08-01T05:29:08.794Z,99347.70
2022-08-01T05:30:12.080Z,99354.97
2022-08-01T05:31:14.791Z,99355.64
2022-08-01T05:32:17.360Z,99356.52
2022-08-01T05:33:19.718Z,99352.81
2022-08-01T05:34:22.094Z,99356.35
2022-08-01T05:35:24.793Z,99359.05
2022-08-01T05:36:29.980Z,99357.22
2022-08-01T05:37:32.349Z,99352.68
2022-08-01T05:38:35.426Z,99353.52
2022-08-01T05:39:37.785Z,99354.35
2022-08-01T05:40:41.024Z,99352.52
2022-08-01T05:41:43.946Z,99354.35
2022-08-01T05:42:47.360Z,99354.22
2022-08-01T05:43:51.131Z,99356.92
2022-08-01T05:44:54.562Z,99361.30
2022-08-01T05:45:57.802Z,99362.33
2022-08-01T05:47:00.866Z,99365.03
2022-08-01T05:48:05.792Z,99357.76
2022-08-01T05:49:08.272Z,99363.00
2022-08-01T05:50:11.231Z,99356.05
2022-08-01T05:51:14.083Z,99359.63
2022-08-01T05:52:16.470Z,99356.92
2022-08-01T05:53:19.320Z,99359.63
2022-08-01T05:54:21.601Z,99358.59
2022-08-01T05:55:23.972Z,99359.47
2022-08-01T05:56:32.093Z,99360.30
2022-08-01T05:57:32.683Z,99360.14
2022-08-01T05:58:35.038Z,99356.59
2022-08-01T05:59:37.803Z,99356.59
2022-08-01T06:00:40.386Z,99352.86
2022-08-01T06:01:44.879Z,99357.44
2022-08-01T06:02:47.459Z,99359.97
2022-08-01T06:03:49.752Z,99358.14
2022-08-01T06:04:53.100Z,99360.14
2022-08-01T06:05:55.618Z,99356.44
2022-08-01T06:06:57.996Z,99359.14
2022-08-01T06:08:00.603Z,99349.16
2022-08-01T06:09:03.204Z,99346.45
2022-08-01T06:10:07.218Z,99345.62
2022-08-01T06:11:09.523Z,99345.62
2022-08-01T06:12:13.623Z,99349.16
2022-08-01T06:13:17.223Z,99348.32
2022-08-01T06:14:19.612Z,99354.56
2022-08-01T06:15:22.458Z,99350.16
2022-08-01T06:16:26.468Z,99351.19
2022-08-01T06:17:29.965Z,99345.62
2022-08-01T06:18:33.543Z,99338.51
2022-08-01T06:19:35.898Z,99338.51
2022-08-01T06:20:39.596Z,99345.62
2022-08-01T06:21:42.000Z,99344.75
2022-08-01T06:22:44.323Z,99344.75
2022-08-01T06:23:48.732Z,99342.91
2022-08-01T06:24:50.990Z,99336.64
2022-08-01T06:25:53.355Z,99345.62
2022-08-01T06:26:58.401Z,99342.05
2022-08-01T06:28:01.249Z,99337.51
2022-08-01T06:29:04.741Z,99346.45
2022-08-01T06:30:08.473Z,99345.62
2022-08-01T06:31:10.898Z,99326.31
2022-08-01T06:32:13.359Z,99326.31
2022-08-01T06:33:18.283Z,99347.45
2022-08-01T06:34:20.693Z,99347.32
2022-08-01T06:35:22.985Z,99338.34
2022-08-01T06:36:27.286Z,99331.94
2022-08-01T06:37:30.602Z,99339.05
2022-08-01T06:38:33.061Z,99332.77
2022-08-01T06:39:35.346Z,99338.17
2022-08-01T06:40:37.920Z,99332.77
2022-08-01T06:41:40.970Z,99333.64
2022-08-01T06:42:43.852Z,99339.05
2022-08-01T06:43:46.411Z,99330.94
2022-08-01T06:44:49.026Z,99330.94
2022-08-01T06:45:51.442Z,99328.23
2022-08-01T06:46:53.907Z,99325.53
2022-08-01T06:47:56.285Z,99329.06
2022-08-01T06:48:58.790Z,99322.66
2022-08-01T06:50:01.914Z,99326.20
2022-08-01T06:51:04.399Z,99321.79
2022-08-01T06:52:07.007Z,99316.38
2022-08-01T06:53:09.803Z,99315.55
2022-08-01T06:54:12.801Z,99320.13
2022-08-01T06:56:29.380Z,99314.42
2022-08-01T06:57:32.576Z,99314.71
2022-08-01T06:58:35.158Z,99320.95
2022-08-01T06:59:38.638Z,99312.01
2022-08-01T07:00:41.446Z,99313.68
2022-08-01T07:01:43.904Z,99319.09
2022-08-01T07:02:46.329Z,99313.68
2022-08-01T07:03:53.656Z,99320.79
2022-08-01T07:04:53.816Z,99324.36
2022-08-01T07:05:56.089Z,99324.36
2022-08-01T07:06:58.647Z,99318.95
2022-08-01T07:08:01.201Z,99318.95
2022-08-01T07:09:09.656Z,99325.20
2022-08-01T07:10:10.302Z,99319.79
2022-08-01T07:11:13.012Z,99324.20
2022-08-01T07:12:16.439Z,99320.63
2022-08-01T07:13:19.922Z,99319.62
2022-08-01T07:14:23.252Z,99321.49
2022-08-01T07:15:26.671Z,99316.92
2022-08-01T07:16:31.776Z,99302.52
2022-08-01T07:17:39.736Z,99321.49
2022-08-01T07:18:43.067Z,99317.92
2022-08-01T07:19:45.839Z,99318.46
2022-08-01T07:20:51.820Z,99322.53
2022-08-01T07:21:54.406Z,99321.20
2022-08-01T07:22:57.317Z,99333.39
2022-08-01T07:23:59.688Z,99331.02
2022-08-01T07:25:05.696Z,99328.85
2022-08-01T07:26:08.294Z,99323.97
2022-08-01T07:27:25.616Z,99325.48
2022-08-01T07:28:16.304Z,99325.17
2022-08-01T07:29:19.624Z,99321.13
2022-08-01T07:30:23.805Z,99320.10
2022-08-01T07:31:30.559Z,99321.63
2022-08-01T07:32:32.428Z,99321.30
2022-08-01T07:33:48.674Z,99315.78
2022-08-01T07:34:43.012Z,99316.45
2022-08-01T07:35:45.966Z,99319.86
2022-08-01T07:36:48.923Z,99314.94
2022-08-01T07:37:51.651Z,99307.69
2022-08-01T07:38:55.334Z,99309.36
2022-08-01T07:39:59.796Z,99312.77
2022-08-01T07:41:02.665Z,99309.02
2022-08-01T07:42:08.404Z,99309.02
2022-08-01T07:43:11.381Z,99314.30
2022-08-01T07:44:14.773Z,99307.84
2022-08-01T07:45:17.638Z,99306.00
2022-08-01T07:46:22.071Z,99312.25
2022-08-01T07:47:25.799Z,99312.95
2022-08-01T07:48:28.327Z,99308.20
2022-08-01T07:49:32.879Z,99315.32
2022-08-01T07:50:35.428Z,99308.03
2022-08-01T07:51:38.588Z,99309.73
2022-08-01T07:52:41.248Z,99307.86
2022-08-01T07:53:43.714Z,99304.32
2022-08-01T07:54:50.431Z,99315.81
2022-08-01T07:55:50.477Z,99310.40
2022-08-01T07:56:53.247Z,99305.85
2022-08-01T07:57:55.839Z,99310.23
2022-08-01T07:58:59.002Z,99307.52
2022-08-01T08:00:02.181Z,99307.52
2022-08-01T08:01:07.257Z,99297.56
2022-08-01T08:02:10.394Z,99302.97
2022-08-01T08:03:13.695Z,99308.22
2022-08-01T08:04:17.310Z,99306.34
2022-08-01T08:05:57.875Z,99307.21
2022-08-01T08:06:25.338Z,99299.92
2022-08-01T08:07:28.886Z,99302.64
2022-08-01T08:08:31.235Z,99307.05
2022-08-01T08:09:37.865Z,99305.17
2022-08-01T08:10:38.525Z,99305.17
2022-08-01T08:12:56.368Z,99301.96
2022-08-01T08:14:00.153Z,99302.30
2022-08-01T08:15:05.311Z,99301.45
2022-08-01T08:16:09.734Z,99298.75
2022-08-01T08:17:13.974Z,99303.33
2022-08-01T08:18:16.363Z,99304.16
2022-08-01T08:19:18.801Z,99299.76
2022-08-01T08:20:21.899Z,99299.58
2022-08-01T08:21:25.028Z,99302.30
2022-08-01T08:22:27.427Z,99298.58
2022-08-01T08:23:42.088Z,99296.70
2022-08-01T08:24:35.276Z,99285.22
2022-08-01T08:25:40.225Z,99294.87
2022-08-01T08:26:44.251Z,99288.59
2022-08-01T08:27:50.432Z,99284.04
2022-08-01T08:28:52.791Z,99288.41
2022-08-01T08:29:55.978Z,99288.41
2022-08-01T08:31:01.066Z,99285.70
2022-08-01T08:32:05.770Z,99284.04
2022-08-01T08:33:13.734Z,99283.86
2022-08-01T08:34:15.156Z,99283.86
2022-08-01T08:35:40.264Z,99281.16
2022-08-01T08:36:31.312Z,99284.70
2022-08-01T08:37:31.479Z,99287.41
2022-08-01T08:38:37.872Z,99284.70
2022-08-01T08:39:43.165Z,99282.34
2022-08-01T08:40:45.821Z,99284.20
2022-08-01T08:41:49.510Z,99284.87
2022-08-01T08:42:53.542Z,99283.17
2022-08-01T08:43:58.388Z,99285.70
2022-08-01T08:45:06.816Z,99274.05
2022-08-01T08:46:12.128Z,99284.87
2022-08-01T08:47:19.700Z,99282.16
2022-08-01T08:48:19.635Z,99283.00
2022-08-01T08:49:26.370Z,99278.45
2022-08-01T08:50:30.296Z,99281.16
2022-08-01T08:51:34.274Z,99288.27
2022-08-01T08:52:39.159Z,99278.45
2022-08-01T08:53:41.681Z,99283.86
2022-08-01T08:54:44.030Z,99281.99
2022-08-01T08:55:55.380Z,99289.28
2022-08-01T08:56:57.561Z,99283.00
2022-08-01T08:58:00.942Z,99273.88
2022-08-01T08:59:03.815Z,99282.86
2022-08-01T09:00:08.275Z,99277.45
2022-08-01T09:01:11.111Z,99278.28
2022-08-01T09:02:14.768Z,99273.70
2022-08-01T09:03:17.654Z,99277.27
2022-08-01T09:04:23.470Z,99282.69
2022-08-01T09:05:38.590Z,99286.23
2022-08-01T09:06:34.812Z,99282.52
2022-08-01T09:07:37.231Z,99285.22
2022-08-01T09:08:39.615Z,99281.52
2022-08-01T09:09:42.134Z,99285.22
2022-08-01T09:10:45.059Z,99281.52
2022-08-01T09:11:56.806Z,99280.64
2022-08-01T09:14:21.554Z,99274.05
2022-08-01T09:15:45.696Z,99286.75
2022-08-01T09:16:49.138Z,99282.34
2022-08-01T09:17:52.782Z,99283.34
2022-08-01T09:18:55.328Z,99284.05
2022-08-01T09:19:59.292Z,99283.18
2022-08-01T09:21:11.402Z,99294.01
2022-08-01T09:22:15.952Z,99284.05
2022-08-01T09:24:46.511Z,99285.72
2022-08-01T09:25:51.678Z,99278.63
2022-08-01T09:26:56.636Z,99275.23
2022-08-01T09:28:04.321Z,99288.10
2022-08-01T09:29:07.591Z,99295.19
2022-08-01T09:30:19.477Z,99287.23
2022-08-01T09:31:22.780Z,99282.69
2022-08-01T09:32:25.909Z,99286.23
2022-08-01T09:33:36.890Z,99283.34
2022-08-01T09:34:36.924Z,99286.92
2022-08-01T09:35:43.992Z,99286.06
2022-08-01T09:36:47.182Z,99284.22
2022-08-01T09:37:51.208Z,99286.06
2022-08-01T09:38:55.583Z,99283.34
2022-08-01T09:39:57.932Z,99291.47
2022-08-01T09:41:04.102Z,99289.77
2022-08-01T09:43:33.249Z,99292.17
2022-08-01T09:44:45.597Z,99287.93
2022-08-01T09:45:50.638Z,99294.18
2022-08-01T09:46:54.108Z,99287.23
2022-08-01T09:47:58.206Z,99293.16
2022-08-01T09:49:02.259Z,99286.92
2022-08-01T09:50:10.834Z,99295.34
2022-08-01T09:51:11.952Z,99290.27
2022-08-01T09:52:19.177Z,99288.58
2022-08-01T09:53:29.646Z,99288.74
2022-08-01T09:54:33.681Z,99285.20
2022-08-01T09:55:37.986Z,99286.20
2022-08-01T09:56:41.704Z,99288.91
2022-08-01T09:57:56.798Z,99283.50
2022-08-01T09:59:01.414Z,99291.63
2022-08-01T10:00:05.248Z,99283.50
2022-08-01T10:01:16.761Z,99263.01
2022-08-01T10:02:37.637Z,99288.25
2022-08-01T10:03:40.237Z,99288.42
2022-08-01T10:04:50.834Z,99287.55
2022-08-01T10:05:53.957Z,99286.72
2022-08-01T10:07:06.273Z,99283.18
2022-08-01T10:08:08.790Z,99284.02
2022-08-01T10:09:13.529Z,99291.13
2022-08-01T10:10:17.056Z,99274.19
2022-08-01T10:11:20.162Z,99283.18
2022-08-01T10:12:23.601Z,99283.31
2022-08-01T10:13:25.920Z,99279.44
2022-08-01T10:14:30.108Z,99285.55
2022-08-01T10:15:36.903Z,99278.26
2022-08-01T10:16:38.383Z,99282.67
2022-08-01T10:17:50.719Z,99269.97
2022-08-01T10:18:45.627Z,99279.95
2022-08-01T10:19:49.725Z,99282.67
2022-08-01T10:20:56.637Z,99277.25
2022-08-01T10:22:00.212Z,99275.38
2022-08-01T10:23:05.981Z,99283.50
2022-08-01T10:24:08.495Z,99276.42
2022-08-01T10:25:13.351Z,99277.25
2022-08-01T10:26:16.491Z,99273.54
2022-08-01T10:27:35.723Z,99276.25
2022-08-01T10:28:24.408Z,99285.20
2022-08-01T10:29:59.178Z,99284.20
2022-08-01T10:30:33.516Z,99276.91
2022-08-01T10:31:37.102Z,99283.16
2022-08-01T10:32:41.443Z,99281.32
2022-08-01T10:33:51.865Z,99275.91
2022-08-01T10:34:49.719Z,99273.03
2022-08-01T10:35:52.822Z,99275.04
2022-08-01T10:36:55.368Z,99283.86
2022-08-01T10:37:58.783Z,99277.44
2022-08-01T10:39:01.025Z,99277.44
2022-08-01T10:40:28.875Z,99278.27
2022-08-01T10:41:09.214Z,99275.56
2022-08-01T10:42:15.575Z,99280.14
2022-08-01T10:43:21.518Z,99277.44
2022-08-01T10:44:23.946Z,99288.27
2022-08-01T10:45:27.575Z,99277.44
2022-08-01T10:46:32.090Z,99287.39
2022-08-01T10:47:51.494Z,99273.03
2022-08-01T10:49:01.836Z,99273.03
2022-08-01T10:50:14.035Z,99269.48
2022-08-01T10:51:19.408Z,99274.03
2022-08-01T10:52:22.741Z,99269.63
2022-08-01T10:53:31.953Z,99274.20
2022-08-01T10:54:31.321Z,99269.80
2022-08-01T10:57:00.598Z,99269.31
2022-08-01T10:58:02.869Z,99278.59
2022-08-01T10:59:06.592Z,99284.02
2022-08-01T11:00:12.340Z,99280.30
2022-08-01T11:01:20.407Z,99273.02
2022-08-01T11:02:32.180Z,99269.30
2022-08-01T11:03:55.661Z,99255.42
2022-08-01T11:05:14.219Z,99271.50
2022-08-01T11:07:48.199Z,99269.98
2022-08-01T11:08:53.090Z,99268.62
2022-08-01T11:11:14.741Z,99272.03
2022-08-01T11:12:24.958Z,99271.33
2022-08-01T11:13:40.153Z,99265.73
2022-08-01T11:16:26.561Z,99264.39
2022-08-01T11:17:46.225Z,99263.56
2022-08-01T11:18:50.639Z,99260.84
2022-08-01T11:20:09.169Z,99263.56
2022-08-01T11:21:59.764Z,99265.43
2022-08-01T11:22:16.557Z,99266.09
2022-08-01T11:23:23.269Z,99262.55
2022-08-01T11:24:50.739Z,99268.63
2022-08-01T11:26:03.332Z,99268.45
2022-08-01T11:27:23.571Z,99265.26
2022-08-01T11:28:34.687Z,99275.22
2022-08-01T11:29:30.623Z,99262.03
2022-08-01T11:30:34.319Z,99264.91
2022-08-01T11:31:38.290Z,99268.62
2022-08-01T11:33:12.106Z,99265.91
2022-08-01T11:34:03.357Z,99273.71
2022-08-01T11:35:05.239Z,99266.75
2022-08-01T11:36:15.779Z,99277.39
2022-08-01T11:38:42.108Z,99267.58
2022-08-01T11:39:49.443Z,99270.20
2022-08-01T11:41:12.340Z,99264.63
2022-08-01T11:42:19.692Z,99263.26
2022-08-01T11:43:24.621Z,99267.84
2022-08-01T11:44:27.655Z,99265.12
2022-08-01T11:47:09.879Z,99261.82
2022-08-01T11:48:27.530Z,99263.86
2022-08-01T11:49:39.336Z,99267.59
2022-08-01T11:50:43.699Z,99264.89
2022-08-01T11:51:46.925Z,99265.25
2022-08-01T11:52:55.656Z,99262.86
2022-08-01T11:53:58.862Z,99267.97
2022-08-01T11:55:10.266Z,99272.86
2022-08-01T11:56:11.670Z,99263.56
2022-08-01T11:57:17.264Z,99261.34
2022-08-01T11:58:29.329Z,99263.91
2022-08-01T11:59:28.735Z,99264.58
2022-08-01T12:00:35.236Z,99269.81
2022-08-01T12:01:38.843Z,99266.94
2022-08-01T12:02:45.461Z,99264.92
2022-08-01T12:03:52.036Z,99263.88
2022-08-01T12:05:08.491Z,99260.17
2022-08-01T12:06:11.433Z,99258.33
2022-08-01T12:07:15.621Z,99257.98
2022-08-01T12:09:42.648Z,99266.30
2022-08-01T12:10:49.716Z,99254.78
2022-08-01T12:11:52.849Z,99261.89
2022-08-01T12:12:58.786Z,99263.59
2022-08-01T12:14:01.445Z,99258.84
2022-08-01T12:15:06.393Z,99244.28
2022-08-01T12:16:11.400Z,99254.95
2022-08-01T12:17:13.869Z,99254.77
2022-08-01T12:18:16.265Z,99260.02
2022-08-01T12:19:22.686Z,99254.42
2022-08-01T12:21:41.543Z,99262.19
2022-08-01T12:22:43.930Z,99269.50
2022-08-01T12:23:46.266Z,99267.62
2022-08-01T12:24:51.299Z,99274.08
2022-08-01T12:25:54.434Z,99274.08
2022-08-01T12:26:56.903Z,99272.38
2022-08-01T12:28:04.204Z,99274.25
2022-08-01T12:29:07.293Z,99277.97
2022-08-01T12:30:11.937Z,99278.80
2022-08-01T12:31:15.912Z,99269.01
2022-08-01T12:33:35.250Z,99269.66
2022-08-01T12:34:38.599Z,99269.01
2022-08-01T12:35:41.300Z,99273.56
2022-08-01T12:36:45.435Z,99270.02
2022-08-01T12:37:49.354Z,99269.16
2022-08-01T12:38:54.554Z,99270.85
2022-08-01T12:39:57.065Z,99270.02
2022-08-01T12:41:01.128Z,99269.84
2022-08-01T12:42:08.497Z,99279.67
2022-08-01T12:43:15.643Z,99267.13
2022-08-01T12:44:15.890Z,99271.55
2022-08-01T12:46:31.927Z,99268.66
2022-08-01T12:47:35.616Z,99275.27
2022-08-01T12:48:37.985Z,99272.73
2022-08-01T12:49:42.347Z,99276.44
2022-08-01T12:51:58.709Z,99275.43
2022-08-01T12:53:01.828Z,99281.86
2022-08-01T12:54:04.890Z,99272.90
2022-08-01T12:55:15.709Z,99274.74
2022-08-01T12:56:19.698Z,99281.20
2022-08-01T12:57:24.978Z,99278.49
2022-08-01T12:58:33.786Z,99265.95
2022-08-01T12:59:36.680Z,99275.09
2022-08-01T13:00:42.769Z,99268.84
2022-08-01T13:01:46.164Z,99271.72
2022-08-01T13:02:50.985Z,99270.02
2022-08-01T13:04:01.791Z,99270.02
2022-08-01T13:05:05.912Z,99266.45
2022-08-01T13:06:13.070Z,99273.73
2022-08-01T13:07:17.070Z,99268.32
2022-08-01T13:08:21.891Z,99266.63
2022-08-01T13:09:24.353Z,99272.03
2022-08-01T13:10:29.789Z,99268.50
2022-08-01T13:11:32.324Z,99273.91
2022-08-01T13:12:35.874Z,99265.78
2022-08-01T13:13:40.665Z,99267.48
2022-08-01T13:14:44.257Z,99262.91
2022-08-01T13:15:46.666Z,99265.61